sensor_id;sensor_type;location;lat;lon;timestamp;P1;durP1;ratioP1;P2;durP2;ratioP2
12912;SDS011;6524;51.368;11.984;2023-10-13T00:02:07;13.20;;;9.57;;
12912;SDS011;6524;51.368;11.984;2023-10-13T00:07:08;11.55;;;9.25;;
12912;SDS011;6524;51.368;11.984;2023-10-13T00:12:09;9.70;;;8.70;;
12912;SDS011;6524;51.368;11.984;2023-10-13T00:17:13;11.15;;;9.77;;
12912;SDS011;6524;51.368;11.984;2023-10-13T00:22:20;11.68;;;10.25;;
12912;SDS011;6524;51.368;11.984;2023-10-13T00:27:22;12.85;;;10.30;;
12912;SDS011;6524;51.368;11.984;2023-10-13T00:32:44;13.30;;;9.82;;
12912;SDS011;6524;51.368;11.984;2023-10-13T00:37:47;12.25;;;9.52;;
12912;SDS011;6524;51.368;11.984;2023-10-13T00:42:47;11.10;;;9.40;;
12912;SDS011;6524;51.368;11.984;2023-10-13T00:47:51;10.05;;;8.90;;
12912;SDS011;6524;51.368;11.984;2023-10-13T00:52:56;11.82;;;9.57;;
12912;SDS011;6524;51.368;11.984;2023-10-13T00:57:58;10.40;;;9.00;;
12912;SDS011;6524;51.368;11.984;2023-10-13T03:38:15;7.90;;;5.80;;
12912;SDS011;6524;51.368;11.984;2023-10-13T03:43:19;5.95;;;4.85;;
12912;SDS011;6524;51.368;11.984;2023-10-13T03:48:22;7.80;;;5.60;;
12912;SDS011;6524;51.368;11.984;2023-10-13T03:53:25;7.38;;;5.35;;
12912;SDS011;6524;51.368;11.984;2023-10-13T03:58:25;7.22;;;5.90;;
12912;SDS011;6524;51.368;11.984;2023-10-13T04:03:26;6.00;;;5.25;;
12912;SDS011;6524;51.368;11.984;2023-10-13T04:08:42;7.05;;;5.55;;
12912;SDS011;6524;51.368;11.984;2023-10-13T04:13:43;8.98;;;6.20;;
12912;SDS011;6524;51.368;11.984;2023-10-13T04:19:02;8.63;;;6.10;;
12912;SDS011;6524;51.368;11.984;2023-10-13T04:24:03;7.45;;;6.45;;
12912;SDS011;6524;51.368;11.984;2023-10-13T04:29:18;8.00;;;6.57;;
12912;SDS011;6524;51.368;11.984;2023-10-13T04:34:38;10.38;;;8.60;;
12912;SDS011;6524;51.368;11.984;2023-10-13T04:39:39;9.25;;;7.38;;
12912;SDS011;6524;51.368;11.984;2023-10-13T04:44:42;9.15;;;7.47;;
12912;SDS011;6524;51.368;11.984;2023-10-13T04:49:48;8.68;;;6.80;;
12912;SDS011;6524;51.368;11.984;2023-10-13T04:54:48;8.38;;;7.38;;
12912;SDS011;6524;51.368;11.984;2023-10-13T04:59:49;7.70;;;6.90;;
12912;SDS011;6524;51.368;11.984;2023-10-13T05:05:17;7.63;;;6.78;;
12912;SDS011;6524;51.368;11.984;2023-10-13T05:10:26;9.95;;;7.43;;
12912;SDS011;6524;51.368;11.984;2023-10-13T05:15:48;9.68;;;8.35;;
12912;SDS011;6524;51.368;11.984;2023-10-13T05:21:08;8.50;;;7.30;;
12912;SDS011;6524;51.368;11.984;2023-10-13T05:26:27;9.20;;;6.78;;
12912;SDS011;6524;51.368;11.984;2023-10-13T05:31:46;8.52;;;7.20;;
12912;SDS011;6524;51.368;11.984;2023-10-13T05:37:05;9.10;;;6.95;;
12912;SDS011;6524;51.368;11.984;2023-10-13T05:42:24;8.50;;;7.43;;
12912;SDS011;6524;51.368;11.984;2023-10-13T05:47:42;10.35;;;7.50;;
12912;SDS011;6524;51.368;11.984;2023-10-13T05:52:43;9.63;;;7.13;;
12912;SDS011;6524;51.368;11.984;2023-10-13T05:57:55;9.73;;;7.50;;
12912;SDS011;6524;51.368;11.984;2023-10-13T06:03:14;7.80;;;6.97;;
12912;SDS011;6524;51.368;11.984;2023-10-13T06:08:32;9.18;;;7.25;;
12912;SDS011;6524;51.368;11.984;2023-10-13T06:13:51;10.20;;;7.00;;
12912;SDS011;6524;51.368;11.984;2023-10-13T06:19:10;8.90;;;6.88;;
12912;SDS011;6524;51.368;11.984;2023-10-13T06:24:29;7.97;;;6.53;;
12912;SDS011;6524;51.368;11.984;2023-10-13T06:29:48;8.05;;;6.82;;
12912;SDS011;6524;51.368;11.984;2023-10-13T06:34:48;6.67;;;5.97;;
12912;SDS011;6524;51.368;11.984;2023-10-13T06:39:54;8.18;;;6.72;;
12912;SDS011;6524;51.368;11.984;2023-10-13T06:45:14;7.82;;;6.30;;
12912;SDS011;6524;51.368;11.984;2023-10-13T06:50:17;9.00;;;6.97;;
12912;SDS011;6524;51.368;11.984;2023-10-13T06:55:19;9.07;;;7.15;;
12912;SDS011;6524;51.368;11.984;2023-10-13T07:00:35;8.55;;;7.05;;
12912;SDS011;6524;51.368;11.984;2023-10-13T07:05:41;8.77;;;7.78;;
12912;SDS011;6524;51.368;11.984;2023-10-13T07:10:47;8.23;;;6.78;;
12912;SDS011;6524;51.368;11.984;2023-10-13T07:16:11;10.27;;;7.53;;
12912;SDS011;6524;51.368;11.984;2023-10-13T07:21:16;10.07;;;7.68;;
12912;SDS011;6524;51.368;11.984;2023-10-13T07:26:16;10.20;;;7.60;;
12912;SDS011;6524;51.368;11.984;2023-10-13T07:31:17;7.97;;;6.90;;
12912;SDS011;6524;51.368;11.984;2023-10-13T07:36:20;7.43;;;6.55;;
12912;SDS011;6524;51.368;11.984;2023-10-13T07:41:24;6.93;;;6.22;;
12912;SDS011;6524;51.368;11.984;2023-10-13T07:46:31;8.35;;;5.85;;
12912;SDS011;6524;51.368;11.984;2023-10-13T07:51:35;8.60;;;6.30;;
12912;SDS011;6524;51.368;11.984;2023-10-13T07:56:47;7.80;;;6.13;;
12912;SDS011;6524;51.368;11.984;2023-10-13T08:01:48;7.55;;;6.20;;
12912;SDS011;6524;51.368;11.984;2023-10-13T08:07:08;7.80;;;6.10;;
12912;SDS011;6524;51.368;11.984;2023-10-13T08:12:13;7.15;;;5.78;;
12912;SDS011;6524;51.368;11.984;2023-10-13T08:17:21;10.20;;;6.80;;
12912;SDS011;6524;51.368;11.984;2023-10-13T08:22:25;8.18;;;6.13;;
12912;SDS011;6524;51.368;11.984;2023-10-13T08:27:25;6.75;;;6.05;;
12912;SDS011;6524;51.368;11.984;2023-10-13T08:32:57;7.60;;;6.80;;
12912;SDS011;6524;51.368;11.984;2023-10-13T08:38:16;9.07;;;6.65;;
12912;SDS011;6524;51.368;11.984;2023-10-13T08:43:17;7.97;;;6.68;;
12912;SDS011;6524;51.368;11.984;2023-10-13T08:48:18;9.27;;;6.65;;
12912;SDS011;6524;51.368;11.984;2023-10-13T08:53:20;8.60;;;6.20;;
12912;SDS011;6524;51.368;11.984;2023-10-13T08:58:28;7.60;;;6.68;;
12912;SDS011;6524;51.368;11.984;2023-10-13T09:03:49;8.75;;;6.40;;
12912;SDS011;6524;51.368;11.984;2023-10-13T09:08:53;11.48;;;7.28;;
12912;SDS011;6524;51.368;11.984;2023-10-13T09:14:19;11.13;;;7.07;;
12912;SDS011;6524;51.368;11.984;2023-10-13T09:19:42;9.35;;;7.10;;
12912;SDS011;6524;51.368;11.984;2023-10-13T09:24:47;7.65;;;6.82;;
12912;SDS011;6524;51.368;11.984;2023-10-13T09:29:57;10.90;;;7.47;;
12912;SDS011;6524;51.368;11.984;2023-10-13T09:35:18;10.50;;;7.60;;
12912;SDS011;6524;51.368;11.984;2023-10-13T09:40:23;8.25;;;6.78;;
12912;SDS011;6524;51.368;11.984;2023-10-13T09:45:35;9.77;;;7.15;;
12912;SDS011;6524;51.368;11.984;2023-10-13T09:50:41;9.10;;;6.63;;
12912;SDS011;6524;51.368;11.984;2023-10-13T09:55:46;10.35;;;6.75;;
12912;SDS011;6524;51.368;11.984;2023-10-13T10:00:51;9.25;;;6.85;;
12912;SDS011;6524;51.368;11.984;2023-10-13T10:06:10;8.02;;;6.43;;
12912;SDS011;6524;51.368;11.984;2023-10-13T10:11:44;8.00;;;6.18;;
12912;SDS011;6524;51.368;11.984;2023-10-13T10:17:08;8.60;;;6.47;;
12912;SDS011;6524;51.368;11.984;2023-10-13T10:22:09;7.03;;;5.65;;
12912;SDS011;6524;51.368;11.984;2023-10-13T10:27:24;9.93;;;5.50;;
12912;SDS011;6524;51.368;11.984;2023-10-13T10:32:35;8.90;;;5.90;;
12912;SDS011;6524;51.368;11.984;2023-10-13T10:37:36;12.65;;;6.63;;
12912;SDS011;6524;51.368;11.984;2023-10-13T10:42:39;10.82;;;6.75;;
12912;SDS011;6524;51.368;11.984;2023-10-13T10:47:47;9.02;;;5.57;;
12912;SDS011;6524;51.368;11.984;2023-10-13T10:52:47;9.40;;;5.50;;
12912;SDS011;6524;51.368;11.984;2023-10-13T10:57:57;12.15;;;5.70;;
12912;SDS011;6524;51.368;11.984;2023-10-13T11:02:58;13.52;;;8.68;;
12912;SDS011;6524;51.368;11.984;2023-10-13T11:07:58;12.18;;;5.70;;
12912;SDS011;6524;51.368;11.984;2023-10-13T11:12:59;10.47;;;5.13;;
12912;SDS011;6524;51.368;11.984;2023-10-13T11:18:14;10.32;;;5.20;;
12912;SDS011;6524;51.368;11.984;2023-10-13T11:23:23;10.32;;;5.65;;
12912;SDS011;6524;51.368;11.984;2023-10-13T11:28:25;10.93;;;5.82;;
12912;SDS011;6524;51.368;11.984;2023-10-13T11:33:29;9.15;;;4.80;;
12912;SDS011;6524;51.368;11.984;2023-10-13T11:38:30;7.97;;;5.25;;
12912;SDS011;6524;51.368;11.984;2023-10-13T11:43:45;10.30;;;5.78;;
12912;SDS011;6524;51.368;11.984;2023-10-13T11:48:49;11.65;;;5.35;;
12912;SDS011;6524;51.368;11.984;2023-10-13T11:53:54;9.50;;;5.50;;
12912;SDS011;6524;51.368;11.984;2023-10-13T11:58:55;11.25;;;5.43;;
12912;SDS011;6524;51.368;11.984;2023-10-13T12:04:01;9.65;;;5.82;;
12912;SDS011;6524;51.368;11.984;2023-10-13T12:09:22;10.25;;;5.82;;
12912;SDS011;6524;51.368;11.984;2023-10-13T12:14:22;11.05;;;6.00;;
12912;SDS011;6524;51.368;11.984;2023-10-13T12:19:30;10.05;;;5.60;;
12912;SDS011;6524;51.368;11.984;2023-10-13T12:24:30;9.82;;;5.97;;
12912;SDS011;6524;51.368;11.984;2023-10-13T12:29:39;8.45;;;5.72;;
12912;SDS011;6524;51.368;11.984;2023-10-13T12:34:46;10.10;;;5.65;;
12912;SDS011;6524;51.368;11.984;2023-10-13T12:40:02;10.43;;;6.30;;
12912;SDS011;6524;51.368;11.984;2023-10-13T12:45:22;10.90;;;6.40;;
12912;SDS011;6524;51.368;11.984;2023-10-13T12:50:41;8.75;;;5.97;;
12912;SDS011;6524;51.368;11.984;2023-10-13T12:55:44;10.30;;;6.03;;
12912;SDS011;6524;51.368;11.984;2023-10-13T13:00:44;12.35;;;6.03;;
12912;SDS011;6524;51.368;11.984;2023-10-13T13:05:48;10.52;;;6.60;;
12912;SDS011;6524;51.368;11.984;2023-10-13T13:10:49;7.65;;;6.07;;
12912;SDS011;6524;51.368;11.984;2023-10-13T13:15:51;8.60;;;5.88;;
12912;SDS011;6524;51.368;11.984;2023-10-13T13:20:52;10.73;;;6.03;;
12912;SDS011;6524;51.368;11.984;2023-10-13T13:25:56;7.88;;;5.47;;
12912;SDS011;6524;51.368;11.984;2023-10-13T13:30:57;10.75;;;7.55;;
12912;SDS011;6524;51.368;11.984;2023-10-13T13:35:57;8.07;;;5.28;;
12912;SDS011;6524;51.368;11.984;2023-10-13T13:41:00;7.90;;;5.45;;
12912;SDS011;6524;51.368;11.984;2023-10-13T13:46:03;8.25;;;5.25;;
12912;SDS011;6524;51.368;11.984;2023-10-13T13:51:11;8.23;;;5.47;;
12912;SDS011;6524;51.368;11.984;2023-10-13T13:56:14;10.07;;;5.40;;
12912;SDS011;6524;51.368;11.984;2023-10-13T14:01:18;9.82;;;5.68;;
12912;SDS011;6524;51.368;11.984;2023-10-13T14:06:22;7.90;;;5.43;;
12912;SDS011;6524;51.368;11.984;2023-10-13T14:11:27;10.00;;;5.32;;
12912;SDS011;6524;51.368;11.984;2023-10-13T14:16:42;9.05;;;6.25;;
12912;SDS011;6524;51.368;11.984;2023-10-13T14:21:47;8.20;;;5.63;;
12912;SDS011;6524;51.368;11.984;2023-10-13T14:26:57;8.27;;;5.70;;
12912;SDS011;6524;51.368;11.984;2023-10-13T14:32:09;9.77;;;6.00;;
12912;SDS011;6524;51.368;11.984;2023-10-13T14:37:14;9.75;;;5.20;;
12912;SDS011;6524;51.368;11.984;2023-10-13T14:42:14;7.32;;;5.38;;
12912;SDS011;6524;51.368;11.984;2023-10-13T14:47:17;8.65;;;5.32;;
12912;SDS011;6524;51.368;11.984;2023-10-13T14:52:17;8.85;;;5.75;;
12912;SDS011;6524;51.368;11.984;2023-10-13T14:57:18;8.57;;;5.15;;
12912;SDS011;6524;51.368;11.984;2023-10-13T15:02:24;8.13;;;5.50;;
12912;SDS011;6524;51.368;11.984;2023-10-13T15:07:25;7.45;;;5.40;;
12912;SDS011;6524;51.368;11.984;2023-10-13T15:12:28;7.35;;;5.07;;
12912;SDS011;6524;51.368;11.984;2023-10-13T15:17:28;8.55;;;5.70;;
12912;SDS011;6524;51.368;11.984;2023-10-13T15:22:29;10.57;;;6.22;;
12912;SDS011;6524;51.368;11.984;2023-10-13T15:27:32;10.45;;;5.82;;
12912;SDS011;6524;51.368;11.984;2023-10-13T15:32:41;7.63;;;5.43;;
12912;SDS011;6524;51.368;11.984;2023-10-13T15:37:41;8.27;;;5.35;;
12912;SDS011;6524;51.368;11.984;2023-10-13T15:42:47;7.95;;;5.22;;
12912;SDS011;6524;51.368;11.984;2023-10-13T15:47:47;8.20;;;5.53;;
12912;SDS011;6524;51.368;11.984;2023-10-13T15:52:48;6.60;;;5.13;;
12912;SDS011;6524;51.368;11.984;2023-10-13T15:57:49;8.70;;;5.05;;
12912;SDS011;6524;51.368;11.984;2023-10-13T16:02:54;9.70;;;6.38;;
12912;SDS011;6524;51.368;11.984;2023-10-13T16:07:57;9.98;;;5.20;;
12912;SDS011;6524;51.368;11.984;2023-10-13T16:13:00;9.75;;;5.20;;
12912;SDS011;6524;51.368;11.984;2023-10-13T16:18:05;9.82;;;5.40;;
12912;SDS011;6524;51.368;11.984;2023-10-13T16:23:07;7.47;;;5.00;;
12912;SDS011;6524;51.368;11.984;2023-10-13T16:28:08;8.25;;;5.22;;
12912;SDS011;6524;51.368;11.984;2023-10-13T16:33:12;7.40;;;4.78;;
12912;SDS011;6524;51.368;11.984;2023-10-13T16:38:13;8.02;;;5.03;;
12912;SDS011;6524;51.368;11.984;2023-10-13T16:43:14;7.97;;;4.95;;
12912;SDS011;6524;51.368;11.984;2023-10-13T16:48:14;9.18;;;5.35;;
12912;SDS011;6524;51.368;11.984;2023-10-13T16:53:16;7.35;;;5.15;;
12912;SDS011;6524;51.368;11.984;2023-10-13T16:58:16;8.03;;;5.40;;
12912;SDS011;6524;51.368;11.984;2023-10-13T17:03:17;8.45;;;4.90;;
12912;SDS011;6524;51.368;11.984;2023-10-13T17:08:29;8.38;;;5.60;;
12912;SDS011;6524;51.368;11.984;2023-10-13T17:13:30;8.90;;;5.30;;
12912;SDS011;6524;51.368;11.984;2023-10-13T17:18:31;8.65;;;5.45;;
12912;SDS011;6524;51.368;11.984;2023-10-13T17:23:33;6.72;;;5.03;;
12912;SDS011;6524;51.368;11.984;2023-10-13T17:28:34;7.72;;;5.38;;
12912;SDS011;6524;51.368;11.984;2023-10-13T17:33:37;9.40;;;5.80;;
12912;SDS011;6524;51.368;11.984;2023-10-13T17:38:39;7.30;;;5.18;;
12912;SDS011;6524;51.368;11.984;2023-10-13T17:43:42;9.30;;;5.53;;
12912;SDS011;6524;51.368;11.984;2023-10-13T17:48:45;7.28;;;5.53;;
12912;SDS011;6524;51.368;11.984;2023-10-13T17:53:48;8.80;;;5.32;;
12912;SDS011;6524;51.368;11.984;2023-10-13T17:58:49;8.55;;;5.57;;
12912;SDS011;6524;51.368;11.984;2023-10-13T18:03:51;9.32;;;5.78;;
12912;SDS011;6524;51.368;11.984;2023-10-13T18:08:53;7.90;;;5.22;;
12912;SDS011;6524;51.368;11.984;2023-10-13T18:13:57;8.60;;;5.90;;
12912;SDS011;6524;51.368;11.984;2023-10-13T18:18:57;8.65;;;5.75;;
12912;SDS011;6524;51.368;11.984;2023-10-13T18:23:58;6.10;;;5.25;;
12912;SDS011;6524;51.368;11.984;2023-10-13T18:28:59;8.57;;;5.22;;
12912;SDS011;6524;51.368;11.984;2023-10-13T18:34:00;6.97;;;5.47;;
12912;SDS011;6524;51.368;11.984;2023-10-13T18:39:02;8.90;;;5.65;;
12912;SDS011;6524;51.368;11.984;2023-10-13T18:44:10;11.10;;;7.03;;
12912;SDS011;6524;51.368;11.984;2023-10-13T18:49:12;9.27;;;5.65;;
12912;SDS011;6524;51.368;11.984;2023-10-13T18:54:13;9.88;;;5.47;;
12912;SDS011;6524;51.368;11.984;2023-10-13T18:59:14;7.40;;;5.05;;
12912;SDS011;6524;51.368;11.984;2023-10-13T19:04:16;8.00;;;5.80;;
12912;SDS011;6524;51.368;11.984;2023-10-13T19:09:16;6.18;;;5.10;;
12912;SDS011;6524;51.368;11.984;2023-10-13T19:14:24;10.35;;;5.53;;
12912;SDS011;6524;51.368;11.984;2023-10-13T19:19:25;9.10;;;5.60;;
12912;SDS011;6524;51.368;11.984;2023-10-13T19:24:26;7.13;;;5.38;;
12912;SDS011;6524;51.368;11.984;2023-10-13T19:29:28;7.90;;;5.70;;
12912;SDS011;6524;51.368;11.984;2023-10-13T19:34:28;7.93;;;5.60;;
12912;SDS011;6524;51.368;11.984;2023-10-13T19:39:28;8.05;;;5.80;;
12912;SDS011;6524;51.368;11.984;2023-10-13T19:44:29;7.80;;;5.93;;
12912;SDS011;6524;51.368;11.984;2023-10-13T19:49:29;9.48;;;6.75;;
12912;SDS011;6524;51.368;11.984;2023-10-13T19:54:29;8.00;;;6.10;;
12912;SDS011;6524;51.368;11.984;2023-10-13T19:59:30;7.60;;;5.90;;
12912;SDS011;6524;51.368;11.984;2023-10-13T20:04:30;8.27;;;5.43;;
12912;SDS011;6524;51.368;11.984;2023-10-13T20:09:32;7.03;;;5.28;;
12912;SDS011;6524;51.368;11.984;2023-10-13T20:14:33;9.40;;;6.78;;
12912;SDS011;6524;51.368;11.984;2023-10-13T20:19:33;9.20;;;6.65;;
12912;SDS011;6524;51.368;11.984;2023-10-13T20:24:33;11.27;;;6.60;;
12912;SDS011;6524;51.368;11.984;2023-10-13T20:29:33;7.90;;;5.90;;
12912;SDS011;6524;51.368;11.984;2023-10-13T20:34:34;6.20;;;5.40;;
12912;SDS011;6524;51.368;11.984;2023-10-13T20:39:34;9.63;;;5.60;;
12912;SDS011;6524;51.368;11.984;2023-10-13T20:44:34;8.07;;;5.32;;
12912;SDS011;6524;51.368;11.984;2023-10-13T20:49:38;9.35;;;5.70;;
12912;SDS011;6524;51.368;11.984;2023-10-13T20:54:38;7.50;;;5.38;;
12912;SDS011;6524;51.368;11.984;2023-10-13T20:59:41;8.35;;;6.05;;
12912;SDS011;6524;51.368;11.984;2023-10-13T21:04:43;8.80;;;5.82;;
12912;SDS011;6524;51.368;11.984;2023-10-13T21:09:44;9.33;;;5.30;;
12912;SDS011;6524;51.368;11.984;2023-10-13T21:14:47;7.10;;;5.10;;
12912;SDS011;6524;51.368;11.984;2023-10-13T21:19:48;8.48;;;5.40;;
12912;SDS011;6524;51.368;11.984;2023-10-13T21:24:49;9.70;;;5.43;;
12912;SDS011;6524;51.368;11.984;2023-10-13T21:29:49;6.15;;;4.68;;
12912;SDS011;6524;51.368;11.984;2023-10-13T21:34:50;8.38;;;4.97;;
12912;SDS011;6524;51.368;11.984;2023-10-13T21:39:51;8.32;;;4.97;;
12912;SDS011;6524;51.368;11.984;2023-10-13T21:44:52;8.35;;;4.95;;
12912;SDS011;6524;51.368;11.984;2023-10-13T21:49:55;10.00;;;4.80;;
12912;SDS011;6524;51.368;11.984;2023-10-13T21:54:58;8.57;;;4.85;;
12912;SDS011;6524;51.368;11.984;2023-10-13T21:59:58;7.83;;;4.70;;
12912;SDS011;6524;51.368;11.984;2023-10-13T22:04:58;9.27;;;4.60;;
12912;SDS011;6524;51.368;11.984;2023-10-13T22:09:59;8.45;;;4.85;;
12912;SDS011;6524;51.368;11.984;2023-10-13T22:14:59;8.48;;;4.88;;
12912;SDS011;6524;51.368;11.984;2023-10-13T22:20:03;6.88;;;4.50;;
12912;SDS011;6524;51.368;11.984;2023-10-13T22:25:06;8.60;;;4.90;;
12912;SDS011;6524;51.368;11.984;2023-10-13T22:30:14;6.63;;;4.65;;
12912;SDS011;6524;51.368;11.984;2023-10-13T22:35:18;8.05;;;4.85;;
12912;SDS011;6524;51.368;11.984;2023-10-13T22:40:20;7.43;;;4.10;;
12912;SDS011;6524;51.368;11.984;2023-10-13T22:45:21;7.75;;;4.68;;
12912;SDS011;6524;51.368;11.984;2023-10-13T22:50:24;6.38;;;4.65;;
12912;SDS011;6524;51.368;11.984;2023-10-13T22:55:27;9.93;;;4.75;;
12912;SDS011;6524;51.368;11.984;2023-10-13T23:00:27;6.72;;;4.38;;
12912;SDS011;6524;51.368;11.984;2023-10-13T23:05:47;5.55;;;4.10;;
12912;SDS011;6524;51.368;11.984;2023-10-13T23:10:51;5.30;;;3.90;;
12912;SDS011;6524;51.368;11.984;2023-10-13T23:15:52;5.85;;;4.13;;
12912;SDS011;6524;51.368;11.984;2023-10-13T23:20:53;6.55;;;3.95;;
12912;SDS011;6524;51.368;11.984;2023-10-13T23:25:54;7.47;;;4.05;;
12912;SDS011;6524;51.368;11.984;2023-10-13T23:30:55;5.63;;;3.72;;
12912;SDS011;6524;51.368;11.984;2023-10-13T23:35:57;6.25;;;4.18;;
12912;SDS011;6524;51.368;11.984;2023-10-13T23:40:57;7.60;;;4.03;;
12912;SDS011;6524;51.368;11.984;2023-10-13T23:45:58;5.72;;;3.72;;
12912;SDS011;6524;51.368;11.984;2023-10-13T23:51:00;6.80;;;3.92;;
12912;SDS011;6524;51.368;11.984;2023-10-13T23:56:08;6.05;;;3.92;;
